Terminal Aerodrome Forecast
Issued by NWS

Home | Current Version | Previous Version | Text Only | Print | Product List | Glossary On
Versions: 1 2 3 4 5 6 7 8 9 10 11 12 13 14 15 16 17 18 19 20 21 22 23 24 25 26 27
000
FTUS43 KDTX 181100
TAFYIP
TAF
KYIP 181120Z 1812/1912 36005KT P6SM SKC
     FM181300 01006KT P6SM SCT018
     FM181700 03008KT P6SM BKN045
     FM182300 05004KT P6SM SCT030=

USA.gov is the U.S. government's official web portal to all federal, state and local government web resources and services.